^^
Your Local Weather - Clay, NY Station Historical Data
Daily Summary for May 19, 2017 Units:  English    Metric   Both
« Previous Day
Next Day »
Daily Weekly Monthly Yearly Custom
  High: Low: Average:
Temperature: 71.2 °F 48.0 °F 58.2 °F
Dew Point: 63.6 °F 44.1 °F 52 °F
Humidity: 93% 64% 80%
Wind Speed: 5.0mph 0.0mph 1.5mph
Wind Gust: 10.0mph - -
Wind- - WNW
Pressure: 30.19 in 29.74 in -
Precipitation: 0.15 in    
Historical Graphs
 
 
Tabular Data for May 19, 2017
Time Temperature Dew Point Pressure Wind Wind Speed Wind Gust Humidity Rainfall Rate (Hourly) solar
00:05 71.2 °F 62.9 °F 29.74 in NW 2.0 mph 4.0 mph 75% 0.00 in 0 W/m2
00:11 71.1 °F 63.5 °F 29.75 in NW 1.0 mph 2.0 mph 77% 0.23 in 0 W/m2
00:18 70.1 °F 63.6 °F 29.75 in West 1.0 mph 4.0 mph 80% 0.93 in 0 W/m2
00:23 68.7 °F 61.9 °F 29.75 in SW 5.0 mph 5.0 mph 79% 0.15 in 0 W/m2
00:29 67.9 °F 61.9 °F 29.74 in West 5.0 mph 6.0 mph 81% 0.06 in 0 W/m2
00:35 67.4 °F 62.1 °F 29.75 in West 2.0 mph 6.0 mph 83% 0.06 in 0 W/m2
00:42 66.9 °F 61.9 °F 29.75 in WSW 2.0 mph 2.0 mph 84% 0.05 in 0 W/m2
00:48 66.7 °F 62.0 °F 29.75 in West 3.0 mph 7.0 mph 85% 0.00 in 0 W/m2
00:53 66.5 °F 61.8 °F 29.75 in WSW 2.0 mph 3.0 mph 85% 0.00 in 0 W/m2
00:59 66.1 °F 61.5 °F 29.75 in WSW 1.0 mph 1.0 mph 85% 0.00 in 0 W/m2
01:05 66.0 °F 61.4 °F 29.75 in WNW 1.0 mph 3.0 mph 85% 0.00 in 0 W/m2
01:12 65.8 °F 61.2 °F 29.75 in WNW 1.0 mph 2.0 mph 85% 0.00 in 0 W/m2
01:18 65.7 °F 61.1 °F 29.75 in West 1.0 mph 2.0 mph 85% 0.00 in 0 W/m2
01:23 65.6 °F 61.3 °F 29.75 in SW 2.0 mph 2.0 mph 86% 0.00 in 0 W/m2
01:29 65.4 °F 61.1 °F 29.75 in SW 2.0 mph 3.0 mph 86% 0.00 in 0 W/m2
01:35 65.2 °F 60.9 °F 29.75 in SW 1.0 mph 3.0 mph 86% 0.00 in 0 W/m2
01:41 64.9 °F 60.6 °F 29.75 in Calm   1.0 mph 86% 0.00 in 0 W/m2
01:48 64.7 °F 60.7 °F 29.75 in Calm   1.0 mph 87% 0.00 in 0 W/m2
01:53 64.6 °F 61.0 °F 29.75 in Calm     88% 0.00 in 0 W/m2
01:59 64.5 °F 60.9 °F 29.75 in Calm     88% 0.00 in 0 W/m2
02:05 64.3 °F 60.7 °F 29.75 in Calm     88% 0.00 in 0 W/m2
02:12 64.1 °F 60.8 °F 29.75 in Calm     89% 0.00 in 0 W/m2
02:18 64.1 °F 60.8 °F 29.76 in Calm     89% 0.00 in 0 W/m2
02:23 64.0 °F 60.7 °F 29.76 in Calm     89% 0.00 in 0 W/m2
02:29 64.0 °F 60.7 °F 29.76 in Calm     89% 0.00 in 0 W/m2
02:35 63.8 °F 60.5 °F 29.75 in Calm     89% 0.00 in 0 W/m2
02:42 63.7 °F 60.7 °F 29.75 in Calm     90% 0.00 in 0 W/m2
02:47 63.5 °F 60.5 °F 29.75 in Calm     90% 0.00 in 0 W/m2
02:53 63.3 °F 60.3 °F 29.75 in Calm     90% 0.00 in 0 W/m2
02:59 63.2 °F 60.2 °F 29.76 in Calm     90% 0.00 in 0 W/m2
03:05 63.3 °F 60.6 °F 29.76 in Calm     91% 0.00 in 0 W/m2
03:11 63.2 °F 60.5 °F 29.77 in Calm     91% 0.00 in 0 W/m2
03:18 63.2 °F 60.5 °F 29.77 in Calm     91% 0.00 in 0 W/m2
03:23 63.3 °F 60.6 °F 29.78 in Calm   1.0 mph 91% 0.00 in 0 W/m2
03:29 63.2 °F 60.5 °F 29.78 in Calm     91% 0.00 in 0 W/m2
03:35 63.2 °F 60.5 °F 29.78 in Calm   1.0 mph 91% 0.00 in 0 W/m2
03:42 63.2 °F 60.5 °F 29.78 in Calm     91% 0.00 in 0 W/m2
03:48 63.0 °F 60.3 °F 29.79 in Calm     91% 0.00 in 0 W/m2
03:53 62.8 °F 60.1 °F 29.79 in Calm     91% 0.00 in 0 W/m2
03:59 62.6 °F 59.9 °F 29.79 in Calm     91% 0.00 in 0 W/m2
04:05 62.3 °F 59.6 °F 29.80 in Calm     91% 0.00 in 0 W/m2
04:12 62.1 °F 59.4 °F 29.80 in Calm     91% 0.00 in 0 W/m2
04:18 61.8 °F 59.1 °F 29.80 in Calm   1.0 mph 91% 0.00 in 0 W/m2
04:23 61.6 °F 58.9 °F 29.80 in Calm     91% 0.00 in 0 W/m2
04:29 61.4 °F 58.7 °F 29.80 in Calm     91% 0.00 in 0 W/m2
04:35 61.1 °F 58.5 °F 29.80 in Calm     91% 0.00 in 0 W/m2
04:41 60.9 °F 58.3 °F 29.81 in Calm     91% 0.00 in 0 W/m2
04:53 60.5 °F 57.9 °F 29.81 in Calm     91% 0.00 in 0 W/m2
04:59 60.2 °F 57.6 °F 29.81 in Calm     91% 0.00 in 0 W/m2
05:05 60.0 °F 57.4 °F 29.82 in Calm     91% 0.00 in 0 W/m2
05:12 59.9 °F 57.6 °F 29.82 in Calm     92% 0.00 in 0 W/m2
05:18 59.8 °F 57.2 °F 29.81 in Calm     91% 0.00 in 0 W/m2
05:23 59.7 °F 57.4 °F 29.81 in Calm     92% 0.00 in 0 W/m2
05:29 59.7 °F 57.4 °F 29.82 in Calm     92% 0.00 in 0 W/m2
05:35 59.6 °F 57.3 °F 29.82 in Calm     92% 0.00 in 0 W/m2
05:41 59.7 °F 57.4 °F 29.82 in Calm     92% 0.00 in 5 W/m2
05:48 59.8 °F 57.5 °F 29.83 in Calm     92% 0.00 in 7 W/m2
05:53 59.8 °F 57.5 °F 29.83 in Calm     92% 0.00 in 9 W/m2
05:59 59.8 °F 57.5 °F 29.83 in Calm     92% 0.00 in 12 W/m2
06:05 59.9 °F 57.6 °F 29.83 in Calm     92% 0.00 in 21 W/m2
06:12 59.9 °F 57.6 °F 29.83 in Calm     92% 0.00 in 21 W/m2
06:18 60.0 °F 57.7 °F 29.83 in Calm     92% 0.00 in 30 W/m2
06:23 60.0 °F 57.7 °F 29.83 in Calm     92% 0.00 in 42 W/m2
06:29 60.1 °F 58.1 °F 29.84 in Calm     93% 0.00 in 39 W/m2
06:35 60.3 °F 58.3 °F 29.84 in Calm     93% 0.00 in 39 W/m2
06:41 60.5 °F 58.5 °F 29.84 in Calm     93% 0.00 in 47 W/m2
06:48 60.6 °F 58.6 °F 29.85 in Calm     93% 0.00 in 67 W/m2
06:53 60.7 °F 58.7 °F 29.85 in Calm     93% 0.00 in 49 W/m2
06:59 61.0 °F 59.0 °F 29.86 in Calm   1.0 mph 93% 0.00 in 69 W/m2
07:05 61.2 °F 59.2 °F 29.86 in SW 1.0 mph 1.0 mph 93% 0.00 in 56 W/m2
07:12 61.4 °F 59.4 °F 29.86 in Calm   1.0 mph 93% 0.00 in 69 W/m2
07:18 61.5 °F 59.5 °F 29.86 in SW 1.0 mph 2.0 mph 93% 0.00 in 54 W/m2
07:23 61.6 °F 59.6 °F 29.86 in Calm   3.0 mph 93% 0.00 in 67 W/m2
07:29 62.2 °F 59.8 °F 29.86 in Calm     92% 0.00 in 216 W/m2
07:35 62.7 °F 60.3 °F 29.86 in Calm   1.0 mph 92% 0.00 in 246 W/m2
07:42 63.2 °F 60.5 °F 29.86 in SW 1.0 mph 1.0 mph 91% 0.00 in 297 W/m2
07:48 63.8 °F 60.5 °F 29.86 in SW 1.0 mph 1.0 mph 89% 0.00 in 306 W/m2
07:53 64.2 °F 60.6 °F 29.85 in Calm   2.0 mph 88% 0.00 in 104 W/m2
07:59 64.6 °F 60.3 °F 29.85 in West 1.0 mph 1.0 mph 86% 0.00 in 316 W/m2
08:05 65.0 °F 60.0 °F 29.86 in WSW 1.0 mph 5.0 mph 84% 0.00 in 343 W/m2
08:12 65.7 °F 60.4 °F 29.86 in WNW 1.0 mph 1.0 mph 83% 0.00 in 362 W/m2
08:18 66.1 °F 60.1 °F 29.86 in WNW 1.0 mph 2.0 mph 81% 0.00 in 385 W/m2
08:23 66.4 °F 60.0 °F 29.85 in WSW 1.0 mph 2.0 mph 80% 0.00 in 394 W/m2
08:29 66.7 °F 60.3 °F 29.86 in SW 1.0 mph 1.0 mph 80% 0.00 in 415 W/m2
08:35 67.3 °F 60.9 °F 29.85 in Calm   2.0 mph 80% 0.00 in 487 W/m2
08:42 67.1 °F 60.0 °F 29.85 in SSW 1.0 mph 2.0 mph 78% 0.00 in 260 W/m2
08:48 66.6 °F 59.2 °F 29.86 in SW 1.0 mph 3.0 mph 77% 0.00 in 169 W/m2
08:53 66.9 °F 60.5 °F 29.86 in NW 1.0 mph 2.0 mph 80% 0.00 in 327 W/m2
08:59 66.5 °F 59.4 °F 29.86 in NNW 1.0 mph 1.0 mph 78% 0.00 in 221 W/m2
09:05 65.8 °F 58.4 °F 29.86 in West 2.0 mph 4.0 mph 77% 0.00 in 294 W/m2
09:12 65.2 °F 57.8 °F 29.87 in NW 2.0 mph 2.0 mph 77% 0.00 in 105 W/m2
09:18 64.4 °F 57.0 °F 29.88 in NNW 3.0 mph 8.0 mph 77% 0.00 in 130 W/m2
09:23 63.3 °F 56.0 °F 29.88 in WNW 4.0 mph 8.0 mph 77% 0.00 in 232 W/m2
09:29 62.5 °F 55.5 °F 29.89 in NW 4.0 mph 4.0 mph 78% 0.00 in 153 W/m2
09:35 61.4 °F 54.5 °F 29.89 in NW 4.0 mph 7.0 mph 78% 0.00 in 135 W/m2
09:41 60.4 °F 53.2 °F 29.89 in NW 4.0 mph 9.0 mph 77% 0.00 in 86 W/m2
09:48 59.6 °F 52.4 °F 29.90 in NNW 5.0 mph 9.0 mph 77% 0.00 in 105 W/m2
09:53 59.0 °F 51.8 °F 29.90 in NNW 4.0 mph 9.0 mph 77% 0.00 in 105 W/m2
09:59 58.5 °F 51.0 °F 29.91 in NNW 4.0 mph 8.0 mph 76% 0.00 in 86 W/m2
10:05 58.0 °F 50.8 °F 29.90 in NNW 5.0 mph 8.0 mph 77% 0.00 in 204 W/m2
10:11 58.0 °F 51.2 °F 29.91 in NW 4.0 mph 5.0 mph 78% 0.00 in 336 W/m2
10:18 57.4 °F 49.9 °F 29.91 in WNW 4.0 mph 9.0 mph 76% 0.00 in 190 W/m2
10:23 56.9 °F 49.4 °F 29.92 in WNW 5.0 mph 10.0 mph 76% 0.00 in 225 W/m2
10:29 57.2 °F 50.1 °F 29.92 in West 4.0 mph 7.0 mph 77% 0.00 in 309 W/m2
10:35 57.3 °F 49.8 °F 29.92 in WSW 3.0 mph 10.0 mph 76% 0.00 in 260 W/m2
10:42 57.3 °F 49.8 °F 29.92 in NW 4.0 mph 4.0 mph 76% 0.00 in 299 W/m2
10:48 57.9 °F 50.7 °F 29.93 in WNW 3.0 mph 4.0 mph 77% 0.00 in 357 W/m2
10:53 58.2 °F 50.7 °F 29.93 in NW 3.0 mph 7.0 mph 76% 0.00 in 285 W/m2
10:59 58.1 °F 50.9 °F 29.93 in WNW 3.0 mph 3.0 mph 77% 0.00 in 248 W/m2
11:05 57.9 °F 50.7 °F 29.94 in NW 3.0 mph 3.0 mph 77% 0.00 in 304 W/m2
11:11 57.7 °F 50.5 °F 29.94 in NW 3.0 mph 9.0 mph 77% 0.00 in 232 W/m2
11:17 57.0 °F 49.9 °F 29.94 in NW 3.0 mph 9.0 mph 77% 0.00 in 248 W/m2
11:23 56.1 °F 49.3 °F 29.95 in WNW 3.0 mph 5.0 mph 78% 0.00 in 227 W/m2
11:29 55.4 °F 49.3 °F 29.96 in NW 4.0 mph 4.0 mph 80% 0.00 in 183 W/m2
11:35 54.9 °F 48.8 °F 29.96 in NW 3.0 mph 4.0 mph 80% 0.00 in 139 W/m2
11:41 54.3 °F 48.6 °F 29.96 in West 4.0 mph 6.0 mph 81% 0.00 in 167 W/m2
11:48 54.1 °F 48.7 °F 29.97 in WNW 3.0 mph 6.0 mph 82% 0.00 in 302 W/m2
11:53 54.6 °F 49.5 °F 29.96 in NW 3.0 mph 3.0 mph 83% 0.00 in 302 W/m2
11:59 56.1 °F 50.0 °F 29.96 in NW 2.0 mph 2.0 mph 80% 0.00 in 561 W/m2
12:05 57.4 °F 50.6 °F 29.97 in WNW 2.0 mph 2.0 mph 78% 0.00 in 1179 W/m2
12:11 58.6 °F 51.8 °F 29.97 in WNW 2.0 mph 4.0 mph 78% 0.00 in 1155 W/m2
12:18 58.5 °F 50.2 °F 29.97 in NW 3.0 mph 4.0 mph 74% 0.00 in 515 W/m2
12:23 58.2 °F 50.0 °F 29.97 in NW 3.0 mph 4.0 mph 74% 0.00 in 446 W/m2
12:29 56.8 °F 49.0 °F 29.98 in WNW 4.0 mph 4.0 mph 75% 0.00 in 543 W/m2
12:35 57.2 °F 49.0 °F 29.98 in NW 3.0 mph 5.0 mph 74% 0.00 in 480 W/m2
12:42 56.8 °F 48.6 °F 29.98 in NW 3.0 mph 4.0 mph 74% 0.00 in 450 W/m2
12:48 56.6 °F 48.8 °F 29.98 in NW 3.0 mph 5.0 mph 75% 0.00 in 568 W/m2
12:53 57.0 °F 49.2 °F 29.99 in NW 3.0 mph 3.0 mph 75% 0.00 in 452 W/m2
12:59 57.1 °F 48.9 °F 29.99 in NW 3.0 mph 4.0 mph 74% 0.00 in 396 W/m2
13:05 56.5 °F 47.9 °F 30.00 in NW 3.0 mph 5.0 mph 73% 0.00 in 357 W/m2
13:12 56.9 °F 48.3 °F 30.00 in NNW 3.0 mph 3.0 mph 73% 0.00 in 638 W/m2
13:18 56.9 °F 48.0 °F 30.01 in NW 3.0 mph 5.0 mph 72% 0.00 in 385 W/m2
13:23 56.2 °F 48.0 °F 30.01 in NW 3.0 mph 5.0 mph 74% 0.00 in 364 W/m2
13:25 56.2 °F 48.7 °F 30.01 in NW 3.0 mph 5.0 mph 76% 0.00 in 332 W/m2
13:31 55.7 °F 48.2 °F 30.01 in NNW 3.0 mph 3.0 mph 76% 0.00 in 345 W/m2
13:38 55.7 °F 48.2 °F 30.02 in WNW 3.0 mph 3.0 mph 76% 0.00 in 350 W/m2
13:43 56.1 °F 49.0 °F 30.02 in NW 2.0 mph 3.0 mph 77% 0.00 in 466 W/m2
13:49 57.3 °F 49.4 °F 30.01 in NW 3.0 mph 3.0 mph 75% 0.00 in 585 W/m2
13:55 57.5 °F 48.2 °F 30.01 in WNW 4.0 mph 4.0 mph 71% 0.00 in 438 W/m2
14:02 57.0 °F 48.4 °F 30.02 in NNW 3.0 mph 6.0 mph 73% 0.00 in 439 W/m2
14:08 56.7 °F 48.5 °F 30.02 in NW 3.0 mph 6.0 mph 74% 0.00 in 448 W/m2
14:13 57.3 °F 49.4 °F 30.02 in WNW 3.0 mph 4.0 mph 75% 0.00 in 492 W/m2
14:19 57.8 °F 48.8 °F 30.02 in NW 3.0 mph 3.0 mph 72% 0.00 in 543 W/m2
14:25 57.7 °F 49.8 °F 30.03 in NW 2.0 mph 3.0 mph 75% 0.00 in 427 W/m2
14:32 56.8 °F 47.9 °F 30.03 in WSW 2.0 mph 2.0 mph 72% 0.00 in 257 W/m2
14:38 56.1 °F 47.6 °F 30.03 in NW 3.0 mph 6.0 mph 73% 0.00 in 290 W/m2
14:43 56.6 °F 49.5 °F 30.03 in NW 3.0 mph 6.0 mph 77% 0.00 in 345 W/m2
14:49 57.3 °F 49.1 °F 30.03 in NW 2.0 mph 2.0 mph 74% 0.00 in 589 W/m2
14:55 58.3 °F 48.6 °F 30.03 in NW 2.0 mph 2.0 mph 70% 0.00 in 571 W/m2
15:02 57.8 °F 49.6 °F 30.03 in NW 3.0 mph 5.0 mph 74% 0.00 in 846 W/m2
15:08 57.7 °F 48.4 °F 30.03 in NW 3.0 mph 5.0 mph 71% 0.00 in 290 W/m2
15:13 56.7 °F 48.1 °F 30.03 in NW 3.0 mph 3.0 mph 73% 0.00 in 533 W/m2
15:19 57.0 °F 47.3 °F 30.04 in NW 2.0 mph 3.0 mph 70% 0.00 in 316 W/m2
15:25 56.4 °F 47.1 °F 30.04 in WNW 3.0 mph 6.0 mph 71% 0.00 in 341 W/m2
15:31 56.4 °F 47.9 °F 30.05 in North 2.0 mph 2.0 mph 73% 0.00 in 318 W/m2
15:38 56.8 °F 48.6 °F 30.04 in NW 2.0 mph 5.0 mph 74% 0.00 in 362 W/m2
15:43 56.4 °F 47.5 °F 30.04 in WNW 2.0 mph 4.0 mph 72% 0.00 in 295 W/m2
15:49 55.8 °F 46.9 °F 30.04 in NNW 3.0 mph 3.0 mph 72% 0.00 in 197 W/m2
15:55 55.5 °F 47.0 °F 30.05 in NW 2.0 mph 7.0 mph 73% 0.00 in 188 W/m2
16:02 55.3 °F 46.1 °F 30.05 in NW 2.0 mph 2.0 mph 71% 0.00 in 251 W/m2
16:08 55.5 °F 46.2 °F 30.05 in NNW 2.0 mph 6.0 mph 71% 0.00 in 301 W/m2
16:13 55.9 °F 45.9 °F 30.06 in WNW 3.0 mph 3.0 mph 69% 0.00 in 287 W/m2
16:19 56.0 °F 45.6 °F 30.06 in WNW 2.0 mph 2.0 mph 68% 0.00 in 302 W/m2
16:25 56.1 °F 45.7 °F 30.06 in NW 2.0 mph 3.0 mph 68% 0.00 in 294 W/m2
16:31 56.4 °F 46.0 °F 30.06 in NW 2.0 mph 3.0 mph 68% 0.00 in 304 W/m2
16:38 56.4 °F 45.6 °F 30.06 in NW 3.0 mph 3.0 mph 67% 0.00 in 294 W/m2
16:43 56.4 °F 46.4 °F 30.07 in NW 3.0 mph 5.0 mph 69% 0.00 in 299 W/m2
16:49 57.0 °F 46.1 °F 30.07 in NNW 2.0 mph 2.0 mph 67% 0.00 in 315 W/m2
16:55 56.6 °F 44.6 °F 30.07 in WNW 2.0 mph 10.0 mph 64% 0.00 in 329 W/m2
17:02 56.8 °F 46.3 °F 30.07 in NNW 3.0 mph 3.0 mph 68% 0.00 in 283 W/m2
17:09 56.9 °F 46.1 °F 30.07 in NW 2.0 mph 2.0 mph 67% 0.00 in 313 W/m2
17:15 56.9 °F 46.1 °F 30.07 in NW 4.0 mph 6.0 mph 67% 0.00 in 211 W/m2
17:21 56.6 °F 45.4 °F 30.07 in NW 4.0 mph 6.0 mph 66% 0.00 in 195 W/m2
17:28 56.8 °F 45.2 °F 30.06 in NNE 3.0 mph 6.0 mph 65% 0.00 in 183 W/m2
17:33 56.6 °F 45.0 °F 30.07 in NW 3.0 mph 3.0 mph 65% 0.00 in 262 W/m2
17:39 56.7 °F 44.7 °F 30.07 in NNE 3.0 mph 4.0 mph 64% 0.00 in 223 W/m2
17:45 56.8 °F 44.7 °F 30.06 in North 4.0 mph 6.0 mph 64% 0.00 in 109 W/m2
17:52 56.1 °F 45.3 °F 30.07 in NW 4.0 mph 4.0 mph 67% 0.00 in 127 W/m2
17:58 56.7 °F 45.9 °F 30.06 in NW 3.0 mph 4.0 mph 67% 0.00 in 192 W/m2
18:03 57.0 °F 46.1 °F 30.06 in WNW 3.0 mph 5.0 mph 67% 0.00 in 128 W/m2
18:09 56.4 °F 45.2 °F 30.06 in WNW 4.0 mph 4.0 mph 66% 0.00 in 137 W/m2
18:15 56.2 °F 45.0 °F 30.06 in NW 4.0 mph 4.0 mph 66% 0.00 in 90 W/m2
18:21 56.1 °F 44.9 °F 30.07 in NNW 3.0 mph 3.0 mph 66% 0.00 in 121 W/m2
18:28 56.3 °F 45.1 °F 30.07 in NW 3.0 mph 5.0 mph 66% 0.00 in 114 W/m2
18:33 56.3 °F 45.1 °F 30.07 in NNW 3.0 mph 4.0 mph 66% 0.00 in 137 W/m2
18:45 56.3 °F 45.5 °F 30.07 in NNW 3.0 mph 5.0 mph 67% 0.00 in 79 W/m2
18:51 55.9 °F 44.3 °F 30.07 in NNW 3.0 mph 4.0 mph 65% 0.00 in 91 W/m2
18:58 55.5 °F 44.3 °F 30.07 in WNW 3.0 mph 4.0 mph 66% 0.00 in 74 W/m2
19:03 55.3 °F 44.9 °F 30.07 in NW 2.0 mph 3.0 mph 68% 0.00 in 62 W/m2
19:09 55.2 °F 44.8 °F 30.07 in NW 2.0 mph 3.0 mph 68% 0.00 in 69 W/m2
19:15 55.1 °F 45.1 °F 30.08 in NNW 2.0 mph 3.0 mph 69% 0.00 in 58 W/m2
19:21 55.1 °F 44.7 °F 30.08 in NNW 1.0 mph 2.0 mph 68% 0.00 in 63 W/m2
19:28 55.1 °F 44.7 °F 30.08 in NNW 1.0 mph 2.0 mph 68% 0.00 in 44 W/m2
19:33 54.9 °F 44.9 °F 30.09 in NW 2.0 mph 2.0 mph 69% 0.00 in 51 W/m2
19:39 54.7 °F 44.7 °F 30.09 in NW 1.0 mph 1.0 mph 69% 0.00 in 42 W/m2
19:45 54.5 °F 45.3 °F 30.09 in Calm   2.0 mph 71% 0.00 in 40 W/m2
19:51 54.2 °F 45.7 °F 30.10 in NNW 1.0 mph 2.0 mph 73% 0.00 in 32 W/m2
19:58 53.7 °F 45.2 °F 30.09 in NNW 1.0 mph 2.0 mph 73% 0.00 in 18 W/m2
20:03 53.2 °F 44.8 °F 30.10 in NW 1.0 mph 2.0 mph 73% 0.00 in 12 W/m2
20:09 52.8 °F 44.7 °F 30.10 in NW 1.0 mph 1.0 mph 74% 0.00 in 11 W/m2
20:15 52.5 °F 44.8 °F 30.11 in NW 1.0 mph 2.0 mph 75% 0.00 in 7 W/m2
20:21 52.1 °F 44.8 °F 30.11 in NW 1.0 mph 2.0 mph 76% 0.00 in 5 W/m2
20:28 51.7 °F 44.4 °F 30.11 in NW 1.0 mph 2.0 mph 76% 0.00 in 0 W/m2
20:33 51.5 °F 44.5 °F 30.10 in Calm   1.0 mph 77% 0.00 in 0 W/m2
20:39 51.2 °F 44.6 °F 30.10 in Calm     78% 0.00 in 0 W/m2
20:45 51.0 °F 44.4 °F 30.11 in Calm     78% 0.00 in 0 W/m2
20:51 50.8 °F 44.5 °F 30.12 in Calm     79% 0.00 in 0 W/m2
20:58 50.5 °F 44.6 °F 30.12 in Calm     80% 0.00 in 0 W/m2
21:03 50.3 °F 44.7 °F 30.12 in Calm     81% 0.00 in 0 W/m2
21:09 50.1 °F 44.5 °F 30.12 in Calm     81% 0.00 in 0 W/m2
21:15 50.0 °F 44.4 °F 30.13 in Calm     81% 0.00 in 0 W/m2
21:22 49.8 °F 44.5 °F 30.13 in Calm     82% 0.00 in 0 W/m2
21:28 49.7 °F 44.7 °F 30.14 in Calm   1.0 mph 83% 0.00 in 0 W/m2
21:33 49.6 °F 44.6 °F 30.14 in Calm     83% 0.00 in 0 W/m2
21:39 49.6 °F 44.6 °F 30.14 in Calm     83% 0.00 in 0 W/m2
21:45 49.5 °F 44.6 °F 30.14 in Calm     83% 0.00 in 0 W/m2
21:52 49.4 °F 44.5 °F 30.15 in Calm     83% 0.00 in 0 W/m2
21:58 49.4 °F 44.8 °F 30.15 in Calm     84% 0.00 in 0 W/m2
22:03 49.3 °F 44.7 °F 30.15 in Calm     84% 0.00 in 0 W/m2
22:09 49.2 °F 44.6 °F 30.16 in Calm     84% 0.00 in 0 W/m2
22:15 49.0 °F 44.1 °F 30.15 in Calm     83% 0.00 in 0 W/m2
22:22 48.9 °F 44.3 °F 30.15 in Calm     84% 0.00 in 0 W/m2
22:28 48.9 °F 44.6 °F 30.14 in Calm     85% 0.00 in 0 W/m2
22:33 48.9 °F 44.6 °F 30.15 in Calm     85% 0.00 in 0 W/m2
22:39 48.8 °F 44.8 °F 30.15 in Calm     86% 0.00 in 0 W/m2
22:45 48.7 °F 44.7 °F 30.15 in Calm     86% 0.00 in 0 W/m2
22:51 48.7 °F 44.7 °F 30.15 in Calm     86% 0.00 in 0 W/m2
22:58 48.5 °F 44.8 °F 30.16 in Calm     87% 0.00 in 0 W/m2
23:03 48.4 °F 44.7 °F 30.16 in Calm     87% 0.00 in 0 W/m2
23:09 48.3 °F 44.6 °F 30.17 in Calm     87% 0.00 in 0 W/m2
23:15 48.1 °F 44.1 °F 30.17 in Calm     86% 0.00 in 0 W/m2
23:21 48.1 °F 44.4 °F 30.17 in Calm     87% 0.00 in 0 W/m2
23:28 48.0 °F 44.3 °F 30.18 in Calm     87% 0.00 in 0 W/m2
23:33 48.0 °F 44.3 °F 30.18 in Calm     87% 0.00 in 0 W/m2
23:39 48.1 °F 44.4 °F 30.17 in Calm     87% 0.00 in 0 W/m2
23:45 48.1 °F 44.4 °F 30.18 in Calm     87% 0.00 in 0 W/m2
23:52 48.3 °F 44.9 °F 30.19 in Calm     88% 0.00 in 0 W/m2
23:58 48.3 °F 44.6 °F 30.19 in Calm     87% 0.00 in 0 W/m2
Country Meadow, Clay, NY, USA
Compliments of Weather Underground - 2 mb